Time;durP1;ratioP1;P1;durP2;ratioP2;P2;SDS_P1;SDS_P2;PMS_P1;PMS_P2;Temp;Humidity;BMP_temperature;BMP_pressure;BME280_temperature;BME280_humidity;BME280_pressure;Samples;Min_cycle;Max_cycle;Signal;HPM_P1;HPM_P2
2023/11/14 00:00:04;;;;;;;8.80;6.10;;;;;;;6.40;68.50;100064.84;108055;1257;60445;-67
2023/11/14 00:02:31;;;;;;;8.00;6.00;;;;;;;6.39;68.49;100064.89;108034;1257;73814;-67
2023/11/14 00:04:59;;;;;;;10.30;6.50;;;;;;;6.38;68.42;100067.23;107987;1257;72728;-67
2023/11/14 00:07:27;;;;;;;7.10;5.10;;;;;;;6.37;68.48;100064.27;108024;1258;71412;-68
2023/11/14 00:09:55;;;;;;;10.40;6.50;;;;;;;6.36;68.50;100066.11;108002;1256;60420;-67
2023/11/14 00:12:22;;;;;;;7.40;5.70;;;;;;;6.33;68.47;100062.72;107958;1258;60457;-67
2023/11/14 00:14:50;;;;;;;9.70;6.20;;;;;;;6.34;68.62;100056.42;107999;1257;73796;-67
2023/11/14 00:17:17;;;;;;;9.30;5.80;;;;;;;6.36;68.62;100065.42;107965;1260;71395;-67
2023/11/14 00:19:45;;;;;;;9.80;6.00;;;;;;;6.33;68.58;100063.45;107797;1257;72653;-67
2023/11/14 00:22:14;;;;;;;9.00;6.40;;;;;;;6.31;68.62;100060.45;107946;1257;61157;-66
2023/11/14 00:24:41;;;;;;;9.20;6.30;;;;;;;6.31;68.73;100061.84;107944;1257;60544;-66
2023/11/14 00:27:09;;;;;;;10.20;6.60;;;;;;;6.31;68.76;100056.90;107944;1257;73813;-66
2023/11/14 00:29:36;;;;;;;8.50;5.80;;;;;;;6.31;68.78;100056.12;107905;1257;70327;-66
2023/11/14 00:32:04;;;;;;;7.50;5.30;;;;;;;6.31;68.87;100052.23;107887;1257;72374;-67
2023/11/14 00:34:32;;;;;;;11.00;6.80;;;;;;;6.31;68.82;100047.89;107910;1256;60444;-67
2023/11/14 00:37:00;;;;;;;8.60;5.30;;;;;;;6.31;68.91;100045.59;107814;1256;60204;-67
2023/11/14 00:39:28;;;;;;;8.70;6.30;;;;;;;6.32;68.87;100051.87;107928;1257;71665;-66
2023/11/14 00:41:55;;;;;;;10.30;6.90;;;;;;;6.30;68.80;100051.59;107965;1257;72480;-67
2023/11/14 00:44:24;;;;;;;10.40;6.90;;;;;;;6.28;68.85;100054.52;107959;1260;70305;-67
2023/11/14 00:46:51;;;;;;;8.40;6.20;;;;;;;6.27;68.86;100060.30;107924;1257;59803;-67
2023/11/14 00:49:19;;;;;;;10.30;6.10;;;;;;;6.25;68.82;100046.04;107919;1258;59014;-67
2023/11/14 00:51:47;;;;;;;9.00;5.60;;;;;;;6.24;68.89;100050.53;107917;1257;73876;-67
2023/11/14 00:54:15;;;;;;;11.70;6.80;;;;;;;6.21;68.74;100055.30;107952;1257;72782;-67
2023/11/14 00:56:42;;;;;;;8.90;6.20;;;;;;;6.13;68.57;100042.39;107955;1257;72517;-67
2023/11/14 00:59:10;;;;;;;7.80;5.60;;;;;;;6.06;68.53;100047.59;107823;1255;60574;-67
2023/11/14 01:01:38;;;;;;;8.80;6.40;;;;;;;5.97;68.35;100047.26;107961;1257;60287;-68
2023/11/14 01:04:09;;;;;;;11.10;6.00;;;;;;;5.86;68.30;100046.89;107960;1256;74033;-68
2023/11/14 01:06:37;;;;;;;8.60;6.10;;;;;;;5.75;68.29;100042.98;107928;1257;71463;-67
2023/11/14 01:09:08;;;;;;;12.90;6.30;;;;;;;5.62;68.32;100038.55;107866;1256;72696;-67
2023/11/14 01:11:37;;;;;;;9.40;6.20;;;;;;;5.49;68.53;100042.17;107932;1256;60923;-68
2023/11/14 01:14:05;;;;;;;9.20;6.60;;;;;;;5.37;68.89;100032.36;107820;1256;60004;-67
2023/11/14 01:16:32;;;;;;;10.90;6.10;;;;;;;5.29;68.99;100026.43;107976;1257;73008;-67
2023/11/14 01:19:01;;;;;;;10.90;6.50;;;;;;;5.22;69.28;100029.42;108003;1257;71494;-68
2023/11/14 01:21:29;;;;;;;8.20;5.90;;;;;;;5.16;69.46;100027.55;107847;1257;72510;-67
2023/11/14 01:23:56;;;;;;;13.50;6.80;;;;;;;5.09;69.65;100023.12;107921;1257;60305;-69
2023/11/14 01:26:24;;;;;;;9.30;6.50;;;;;;;5.02;69.84;100017.84;108006;1256;60231;-67
2023/11/14 01:28:52;;;;;;;8.80;6.30;;;;;;;4.96;69.99;100015.75;107943;1257;73022;-67
2023/11/14 01:31:22;;;;;;;9.20;6.50;;;;;;;4.91;70.27;100018.89;107880;1257;72756;-66
2023/11/14 01:33:51;;;;;;;9.00;6.00;;;;;;;4.87;70.41;100024.52;107922;1257;72760;-70
2023/11/14 01:36:19;;;;;;;9.40;6.30;;;;;;;4.80;70.53;100017.27;107871;1256;59913;-67
2023/11/14 01:38:47;;;;;;;9.30;6.00;;;;;;;4.73;70.75;100009.55;107891;1260;60267;-67
2023/11/14 01:41:14;;;;;;;8.10;5.90;;;;;;;4.67;70.80;100008.64;107867;1257;73863;-66
2023/11/14 01:43:43;;;;;;;9.50;6.30;;;;;;;4.60;70.97;99999.44;107960;1257;73135;-68
2023/11/14 01:46:12;;;;;;;9.50;6.50;;;;;;;4.55;71.18;99997.98;107896;1256;72354;-67
2023/11/14 01:48:41;;;;;;;9.60;6.50;;;;;;;4.47;71.31;99997.88;108058;1257;61180;-67
2023/11/14 01:51:09;;;;;;;8.70;6.00;;;;;;;4.41;71.60;99991.98;107849;1257;60556;-68
2023/11/14 01:53:36;;;;;;;10.10;6.40;;;;;;;4.36;71.62;99987.63;107905;1256;72593;-67
2023/11/14 01:56:05;;;;;;;9.10;6.10;;;;;;;4.32;71.82;99983.99;107790;1256;71712;-67
2023/11/14 01:58:33;;;;;;;9.90;6.90;;;;;;;4.26;72.09;99985.70;107959;1257;71186;-67
2023/11/14 02:01:01;;;;;;;10.20;6.70;;;;;;;4.23;72.23;99988.16;107774;1257;60933;-67
2023/11/14 02:03:29;;;;;;;11.00;6.40;;;;;;;4.21;72.30;99990.39;108007;1256;60454;-68
2023/11/14 02:05:57;;;;;;;10.90;6.50;;;;;;;4.19;72.37;99997.96;107945;1258;72630;-67
2023/11/14 02:08:24;;;;;;;9.50;6.30;;;;;;;4.16;72.31;100002.11;108003;1256;72960;-67
2023/11/14 02:10:53;;;;;;;8.60;6.00;;;;;;;4.11;72.45;100003.17;107951;1256;71496;-67
2023/11/14 02:13:22;;;;;;;10.20;6.90;;;;;;;4.05;72.58;99995.09;108001;1257;59289;-67
2023/11/14 02:16:04;;;;;;;10.80;7.10;;;;;;;3.98;73.05;99994.95;107921;1255;60330;-67
2023/11/14 02:18:51;;;;;;;10.80;7.40;;;;;;;3.94;73.24;99993.83;107798;1255;73093;-66
2023/11/14 02:21:21;;;;;;;10.50;7.50;;;;;;;3.90;73.24;99996.63;107883;1256;72484;-67
2023/11/14 02:23:49;;;;;;;12.80;7.30;;;;;;;3.83;73.31;99994.73;107800;1256;72431;-67
2023/11/14 02:26:16;;;;;;;11.40;7.60;;;;;;;3.77;73.41;99992.98;107927;1256;60217;-67
2023/11/14 02:28:44;;;;;;;10.40;7.30;;;;;;;3.72;73.41;99989.95;107957;1256;60368;-66
2023/11/14 02:31:11;;;;;;;11.80;7.80;;;;;;;3.67;73.56;99994.10;107852;1256;72574;-67
2023/11/14 02:33:39;;;;;;;17.00;10.90;;;;;;;3.62;73.76;99998.56;107974;1256;72491;-67
2023/11/14 02:36:07;;;;;;;11.50;7.40;;;;;;;3.59;73.84;99994.88;107947;1256;72681;-67
2023/11/14 02:38:34;;;;;;;12.20;8.10;;;;;;;3.57;74.12;99990.57;107918;1260;60407;-67
2023/11/14 02:41:02;;;;;;;11.40;7.70;;;;;;;3.55;74.27;99990.25;107951;1256;60467;-67
2023/11/14 02:43:30;;;;;;;13.20;7.80;;;;;;;3.52;74.34;99990.05;107845;1256;72608;-68
2023/11/14 02:45:58;;;;;;;10.60;7.60;;;;;;;3.52;74.47;99989.67;107960;1257;71434;-67
2023/11/14 02:48:27;;;;;;;11.20;7.70;;;;;;;3.51;74.78;99990.83;107829;1256;71788;-69
2023/11/14 02:50:55;;;;;;;12.20;8.40;;;;;;;3.50;74.85;99991.09;107953;1256;60565;-68
2023/11/14 02:53:23;;;;;;;10.40;7.50;;;;;;;3.48;74.91;99983.33;107794;1261;60509;-67
2023/11/14 02:55:51;;;;;;;13.30;8.20;;;;;;;3.45;74.86;99981.82;107965;1256;73891;-68
2023/11/14 02:58:19;;;;;;;12.60;7.60;;;;;;;3.41;74.85;99979.69;107935;1256;71995;-66
2023/11/14 03:00:50;;;;;;;12.40;7.90;;;;;;;3.36;74.87;99977.36;107888;1256;71414;-67
2023/11/14 03:03:18;;;;;;;11.60;7.90;;;;;;;3.30;74.97;99968.33;107939;1256;60367;-67
2023/11/14 03:05:46;;;;;;;11.70;7.50;;;;;;;3.26;75.08;99960.55;107921;1256;60355;-67
2023/11/14 03:08:14;;;;;;;13.20;8.40;;;;;;;3.20;75.22;99964.00;107879;1256;73841;-67
2023/11/14 03:10:43;;;;;;;11.40;7.30;;;;;;;3.15;75.36;99967.60;107922;1260;71685;-67
2023/11/14 03:13:11;;;;;;;12.70;8.30;;;;;;;3.10;75.46;99966.02;107875;1255;72266;-67
2023/11/14 03:15:39;;;;;;;13.00;7.80;;;;;;;3.05;75.71;99973.23;107834;1255;60318;-67
2023/11/14 03:18:07;;;;;;;11.30;7.90;;;;;;;3.01;75.71;99980.46;107856;1256;60485;-68
2023/11/14 03:20:35;;;;;;;12.80;8.00;;;;;;;2.98;76.05;99976.52;107974;1255;72611;-67
2023/11/14 03:23:03;;;;;;;11.20;8.10;;;;;;;2.95;76.23;99971.01;107967;1256;72662;-67
2023/11/14 03:25:31;;;;;;;12.50;8.10;;;;;;;2.90;76.08;99967.65;107835;1256;72731;-66
2023/11/14 03:28:01;;;;;;;14.60;9.50;;;;;;;2.86;76.31;99974.11;107836;1256;60340;-68
2023/11/14 03:30:29;;;;;;;11.50;7.90;;;;;;;2.80;76.66;99976.80;107890;1256;59027;-68
2023/11/14 03:32:57;;;;;;;12.60;8.00;;;;;;;2.76;76.95;99977.23;107967;1257;72688;-67
2023/11/14 03:35:26;;;;;;;12.30;7.60;;;;;;;2.73;77.31;99982.45;107896;1256;71572;-68
2023/11/14 03:37:55;;;;;;;12.30;7.70;;;;;;;2.69;77.57;99978.80;107945;1260;72738;-67
2023/11/14 03:40:23;;;;;;;11.50;7.50;;;;;;;2.65;77.69;99982.90;107837;1256;60407;-68
2023/11/14 03:42:51;;;;;;;10.90;7.30;;;;;;;2.61;77.55;99979.98;107900;1256;60330;-67
2023/11/14 03:45:18;;;;;;;11.40;7.60;;;;;;;2.57;77.78;99977.87;107837;1256;71614;-68
2023/11/14 03:47:46;;;;;;;11.90;7.90;;;;;;;2.53;77.83;99979.04;107882;1256;72737;-68
2023/11/14 03:50:14;;;;;;;11.30;7.50;;;;;;;2.51;78.03;99974.11;107821;1256;71379;-66
2023/11/14 03:52:43;;;;;;;14.30;7.90;;;;;;;2.50;78.17;99973.92;107832;1256;60886;-67
2023/11/14 03:55:11;;;;;;;12.50;7.60;;;;;;;2.48;78.11;99975.97;107929;1255;60449;-67
2023/11/14 03:57:39;;;;;;;13.10;8.30;;;;;;;2.46;78.28;99969.53;107780;1256;73809;-67
2023/11/14 04:00:09;;;;;;;12.30;7.20;;;;;;;2.44;78.37;99959.30;107906;1256;71467;-67
2023/11/14 04:02:41;;;;;;;12.80;7.80;;;;;;;2.41;78.34;99937.63;107982;1255;72873;-67
2023/11/14 04:05:09;;;;;;;11.50;7.50;;;;;;;2.35;78.43;99925.13;107999;1256;59378;-67
2023/11/14 04:07:37;;;;;;;10.00;7.80;;;;;;;2.29;78.78;99918.70;107858;1256;60428;-67
2023/11/14 04:10:07;;;;;;;11.80;7.10;;;;;;;2.21;78.59;99921.45;107763;1256;73881;-67
2023/11/14 04:12:35;;;;;;;11.10;7.80;;;;;;;2.14;78.89;99915.85;107846;1256;71236;-67
2023/11/14 04:15:03;;;;;;;9.80;7.00;;;;;;;2.07;78.79;99914.09;107921;1256;71479;-68
2023/11/14 04:17:32;;;;;;;13.30;7.70;;;;;;;1.99;78.94;99915.98;107894;1256;60439;-67
2023/11/14 04:19:59;;;;;;;9.20;6.70;;;;;;;1.83;79.15;99920.77;107881;1260;60977;-67
2023/11/14 04:22:27;;;;;;;11.20;7.10;;;;;;;1.76;79.43;99920.52;107946;1256;73839;-67
2023/11/14 04:24:55;;;;;;;11.40;7.20;;;;;;;1.72;79.61;99917.71;107844;1260;73137;-68
2023/11/14 04:27:22;;;;;;;11.70;7.40;;;;;;;1.71;80.08;99911.46;107919;1256;71404;-68
2023/11/14 04:29:50;;;;;;;14.00;7.00;;;;;;;1.70;80.18;99911.16;107913;1256;61342;-67
2023/11/14 04:32:19;;;;;;;10.20;7.30;;;;;;;1.68;80.45;99908.17;107997;1256;60525;-67
2023/11/14 04:34:47;;;;;;;11.50;7.40;;;;;;;1.69;80.77;99908.13;107834;1256;73427;-68
2023/11/14 04:37:14;;;;;;;10.70;7.40;;;;;;;1.70;80.93;99914.80;107930;1256;72881;-67
2023/11/14 04:39:43;;;;;;;10.10;7.10;;;;;;;1.70;80.96;99920.96;107967;1256;70845;-67
2023/11/14 04:42:11;;;;;;;12.20;7.90;;;;;;;1.68;81.40;99914.25;107888;1257;61156;-66
2023/11/14 04:44:38;;;;;;;14.20;7.80;;;;;;;1.66;81.55;99907.30;107880;1256;61243;-68
2023/11/14 04:47:07;;;;;;;10.70;7.50;;;;;;;1.66;81.87;99904.26;107722;1258;74724;-67
2023/11/14 04:49:36;;;;;;;12.70;8.00;;;;;;;1.64;81.95;99899.25;107858;1256;71737;-66
2023/11/14 04:52:04;;;;;;;11.90;8.10;;;;;;;1.61;82.33;99901.45;107832;1256;71382;-67
2023/11/14 04:54:32;;;;;;;11.70;8.00;;;;;;;1.60;82.75;99897.10;107980;1256;61143;-67
2023/11/14 04:56:59;;;;;;;11.80;7.90;;;;;;;1.60;83.00;99898.80;107907;1255;61264;-67
2023/11/14 04:59:27;;;;;;;13.80;7.90;;;;;;;1.63;83.02;99902.90;107816;1257;73661;-67
2023/11/14 05:01:55;;;;;;;13.00;8.20;;;;;;;1.63;83.15;99905.09;107889;1256;71575;-67
2023/11/14 05:04:22;;;;;;;13.10;7.80;;;;;;;1.64;83.44;99901.04;107870;1256;72703;-67
2023/11/14 05:06:50;;;;;;;11.80;8.00;;;;;;;1.68;83.52;99904.20;107851;1256;60289;-67
2023/11/14 05:09:17;;;;;;;11.10;7.40;;;;;;;1.71;83.63;99907.98;107868;1256;61136;-67
2023/11/14 05:11:45;;;;;;;15.00;8.90;;;;;;;1.74;83.82;99904.89;107850;1256;73615;-66
2023/11/14 05:14:13;;;;;;;11.30;8.10;;;;;;;1.78;83.98;99903.48;107878;1256;72748;-66
2023/11/14 05:16:41;;;;;;;14.10;8.00;;;;;;;1.82;84.11;99892.60;107825;1255;71449;-67
2023/11/14 05:19:09;;;;;;;11.90;8.40;;;;;;;1.86;84.39;99891.30;107837;1256;61248;-67
2023/11/14 05:21:37;;;;;;;14.00;8.70;;;;;;;1.89;84.50;99902.61;107874;1255;61855;-67
2023/11/14 05:24:07;;;;;;;11.60;8.30;;;;;;;1.93;84.50;99896.98;107873;1256;73457;-67
2023/11/14 05:26:34;;;;;;;12.30;8.30;;;;;;;1.95;84.64;99897.91;107934;1256;72906;-67
2023/11/14 05:29:02;;;;;;;12.50;8.30;;;;;;;1.98;84.90;99894.55;107893;1256;72471;-68
2023/11/14 05:31:33;;;;;;;12.70;8.50;;;;;;;2.02;85.08;99885.36;107986;1256;61375;-68
2023/11/14 05:34:00;;;;;;;12.60;8.40;;;;;;;2.06;85.36;99876.16;107815;1256;61320;-67
2023/11/14 05:36:28;;;;;;;15.20;9.10;;;;;;;2.07;85.48;99870.44;107894;1255;77171;-67
2023/11/14 05:38:55;;;;;;;12.30;8.40;;;;;;;2.07;85.95;99868.29;107851;1255;71978;-67
2023/11/14 05:41:23;;;;;;;14.30;9.00;;;;;;;2.13;86.44;99866.52;107894;1256;71448;-67
2023/11/14 05:43:51;;;;;;;13.30;8.70;;;;;;;2.21;86.79;99868.16;107844;1256;61283;-67
2023/11/14 05:46:18;;;;;;;13.90;8.70;;;;;;;2.29;87.05;99872.23;107910;1256;61079;-69
2023/11/14 05:48:46;;;;;;;13.20;8.70;;;;;;;2.35;87.60;99872.70;107937;1256;73493;-67
2023/11/14 05:51:14;;;;;;;13.80;9.20;;;;;;;2.43;88.14;99871.97;108125;1255;71441;-68
2023/11/14 05:53:44;;;;;;;14.10;9.10;;;;;;;2.53;88.67;99873.06;108022;1256;72559;-68
2023/11/14 05:56:12;;;;;;;12.30;9.10;;;;;;;2.65;89.23;99869.04;108020;1255;61126;-67
2023/11/14 05:58:40;;;;;;;14.90;9.70;;;;;;;2.76;90.02;99862.40;107856;1256;61164;-67
2023/11/14 06:01:10;;;;;;;13.40;9.70;;;;;;;2.90;90.52;99865.77;108026;1256;74808;-67
2023/11/14 06:03:37;;;;;;;14.20;9.40;;;;;;;3.04;91.24;99869.50;107927;1256;72504;-67
2023/11/14 06:06:05;;;;;;;12.50;8.40;;;;;;;3.19;91.81;99862.88;107796;1256;71491;-68
2023/11/14 06:08:33;;;;;;;11.80;8.40;;;;;;;3.33;92.22;99859.27;107942;1255;61227;-67
2023/11/14 06:11:01;;;;;;;12.60;8.60;;;;;;;3.45;92.55;99854.15;107891;1256;61168;-67
2023/11/14 06:13:28;;;;;;;11.90;9.00;;;;;;;3.57;92.87;99852.35;107693;1255;74735;-68
2023/11/14 06:15:56;;;;;;;11.20;7.90;;;;;;;3.69;93.20;99845.57;107830;1260;72392;-67
2023/11/14 06:18:23;;;;;;;11.50;7.90;;;;;;;3.83;93.56;99844.36;107787;1256;71387;-67
2023/11/14 06:20:51;;;;;;;11.40;8.10;;;;;;;3.95;93.55;99849.96;107808;1257;63216;-67
2023/11/14 06:23:20;;;;;;;10.10;7.40;;;;;;;4.03;93.50;99845.58;107696;1255;61232;-66
2023/11/14 06:25:48;;;;;;;11.20;7.90;;;;;;;4.10;93.51;99844.31;107833;1255;75195;-67
2023/11/14 06:28:16;;;;;;;11.60;7.10;;;;;;;4.16;93.45;99843.90;107804;1256;71433;-66
2023/11/14 06:30:43;;;;;;;11.00;7.60;;;;;;;4.20;93.36;99839.83;107770;1255;72032;-67
2023/11/14 06:33:11;;;;;;;10.70;7.50;;;;;;;4.25;93.27;99841.45;107859;1256;61116;-68
2023/11/14 06:35:40;;;;;;;10.70;7.00;;;;;;;4.31;93.45;99844.34;107838;1255;61255;-67
2023/11/14 06:38:08;;;;;;;9.60;7.10;;;;;;;4.38;93.39;99837.49;107971;1256;73361;-68
2023/11/14 06:40:36;;;;;;;9.30;6.20;;;;;;;4.42;93.33;99828.13;107856;1256;71426;-68
2023/11/14 06:43:04;;;;;;;10.40;6.90;;;;;;;4.48;93.13;99828.58;107813;1256;72765;-69
2023/11/14 06:45:33;;;;;;;9.30;6.90;;;;;;;4.52;92.77;99828.73;107817;1256;61215;-68
2023/11/14 06:48:04;;;;;;;9.80;6.60;;;;;;;4.54;92.67;99823.09;107821;1256;61099;-69
2023/11/14 06:50:46;;;;;;;9.70;7.00;;;;;;;4.59;92.66;99819.24;107892;1255;74754;-68
2023/11/14 06:53:41;;;;;;;8.80;6.30;;;;;;;4.65;92.66;99809.71;107783;1256;74522;-67
2023/11/14 06:56:31;;;;;;;9.90;6.80;;;;;;;4.72;92.72;99804.45;107830;1256;74921;-68
2023/11/14 06:58:59;;;;;;;11.20;7.10;;;;;;;4.78;92.68;99799.64;107825;1258;60267;-69
2023/11/14 07:01:40;;;;;;;8.60;6.30;;;;;;;4.84;92.76;99795.52;107835;1256;60123;-68
2023/11/14 07:04:29;;;;;;;11.10;6.50;;;;;;;4.91;92.74;99795.17;107786;1256;74830;-68
2023/11/14 07:07:01;;;;;;;9.40;7.10;;;;;;;5.03;92.92;99799.40;107863;1256;72739;-67
2023/11/14 07:09:35;;;;;;;10.60;6.50;;;;;;;5.15;92.80;99794.04;107686;1256;72776;-67
2023/11/14 07:12:03;;;;;;;9.30;6.30;;;;;;;5.27;92.77;99786.39;107767;1256;61788;-69
2023/11/14 07:14:31;;;;;;;9.50;6.30;;;;;;;5.39;92.57;99789.92;107802;1256;61272;-68
2023/11/14 07:16:58;;;;;;;9.20;6.20;;;;;;;5.52;92.20;99785.60;107709;1255;74824;-68
2023/11/14 07:19:26;;;;;;;8.70;5.30;;;;;;;5.63;91.94;99780.63;107894;1256;71247;-67
2023/11/14 07:21:55;;;;;;;8.30;4.90;;;;;;;5.74;91.38;99776.92;107835;1256;73069;-67
2023/11/14 07:24:23;;;;;;;7.60;4.90;;;;;;;5.85;90.59;99772.10;107810;1256;61148;-68
2023/11/14 07:26:50;;;;;;;7.40;4.60;;;;;;;5.97;89.64;99772.18;107934;1255;61258;-67
2023/11/14 07:29:19;;;;;;;7.30;4.50;;;;;;;6.09;88.23;99769.29;107925;1256;74695;-67
2023/11/14 07:31:47;;;;;;;6.70;4.80;;;;;;;6.19;86.70;99763.01;107942;1260;71729;-67
2023/11/14 07:34:14;;;;;;;6.80;4.10;;;;;;;6.29;85.15;99762.43;107961;1256;72768;-67
2023/11/14 07:36:42;;;;;;;6.80;4.10;;;;;;;6.39;83.62;99756.65;107915;1256;61164;-66
2023/11/14 07:39:11;;;;;;;8.00;4.90;;;;;;;6.48;82.21;99750.02;107979;1256;59875;-67
2023/11/14 07:41:39;;;;;;;6.30;4.00;;;;;;;6.57;80.63;99739.50;107934;1256;74739;-67
2023/11/14 07:44:09;;;;;;;7.10;4.40;;;;;;;6.64;79.03;99730.27;107807;1256;72971;-67
2023/11/14 07:46:38;;;;;;;7.00;4.60;;;;;;;6.72;77.14;99725.25;107973;1256;72761;-67
2023/11/14 07:49:06;;;;;;;7.20;4.70;;;;;;;6.80;75.80;99718.96;107943;1256;61204;-68
2023/11/14 07:51:33;;;;;;;7.80;5.10;;;;;;;6.87;74.50;99706.38;108015;1256;61130;-66
2023/11/14 07:54:01;;;;;;;7.70;5.10;;;;;;;6.94;73.37;99695.11;107978;1256;73380;-67
2023/11/14 07:56:29;;;;;;;8.40;5.30;;;;;;;7.01;72.42;99691.46;107831;1256;72660;-67
2023/11/14 07:58:57;;;;;;;7.40;4.90;;;;;;;7.08;71.68;99688.05;107929;1256;72699;-67
2023/11/14 08:01:25;;;;;;;7.80;5.00;;;;;;;7.15;71.12;99683.80;107957;1256;61123;-66
2023/11/14 08:03:52;;;;;;;8.90;5.60;;;;;;;7.20;70.38;99674.91;107989;1256;61202;-68
2023/11/14 08:06:20;;;;;;;9.70;6.20;;;;;;;7.23;69.73;99667.66;107963;1256;75340;-67
2023/11/14 08:08:49;;;;;;;9.70;6.50;;;;;;;7.27;68.97;99658.54;107986;1256;72472;-66
2023/11/14 08:11:18;;;;;;;11.00;6.40;;;;;;;7.32;68.39;99649.64;107825;1256;73404;-66
2023/11/14 08:13:46;;;;;;;10.90;6.50;;;;;;;7.35;67.79;99647.54;107812;1256;61256;-67
2023/11/14 08:16:14;;;;;;;10.20;6.10;;;;;;;7.40;67.27;99651.39;107845;1255;61225;-66
2023/11/14 08:18:41;;;;;;;9.80;6.10;;;;;;;7.43;66.55;99654.81;107760;1256;73387;-67
2023/11/14 08:21:09;;;;;;;9.70;6.40;;;;;;;7.47;65.64;99656.00;107793;1255;72732;-66
2023/11/14 08:23:40;;;;;;;9.00;5.90;;;;;;;7.50;65.19;99658.30;107681;1255;71439;-68
2023/11/14 08:26:09;;;;;;;8.70;6.00;;;;;;;7.55;64.84;99654.55;107891;1256;61138;-67
2023/11/14 08:28:39;;;;;;;9.40;6.50;;;;;;;7.58;64.26;99659.23;107935;1260;61267;-67
2023/11/14 08:31:08;;;;;;;12.30;7.60;;;;;;;7.61;63.62;99661.60;107862;1260;74042;-66
2023/11/14 08:33:35;;;;;;;10.90;7.50;;;;;;;7.63;62.87;99667.02;107964;1256;72494;-67
2023/11/14 08:36:03;;;;;;;11.10;7.00;;;;;;;7.67;62.41;99674.80;107949;1256;72957;-66
2023/11/14 08:38:31;;;;;;;11.40;7.10;;;;;;;7.69;62.09;99682.45;107903;1256;60910;-66
2023/11/14 08:41:00;;;;;;;9.20;6.30;;;;;;;7.74;61.65;99686.64;107792;1256;61143;-65
2023/11/14 08:43:28;;;;;;;9.50;5.90;;;;;;;7.77;61.27;99677.39;107976;1256;74652;-66
2023/11/14 08:45:56;;;;;;;9.40;5.70;;;;;;;7.80;61.19;99675.39;107923;1256;72820;-66
2023/11/14 08:48:24;;;;;;;8.50;5.70;;;;;;;7.84;61.04;99671.25;107862;1256;72635;-67
2023/11/14 08:50:52;;;;;;;9.10;5.70;;;;;;;7.85;60.67;99679.08;107843;1256;61220;-67
2023/11/14 08:53:21;;;;;;;8.60;5.80;;;;;;;7.88;60.60;99669.40;107933;1256;61277;-66
2023/11/14 08:55:49;;;;;;;9.00;5.90;;;;;;;7.93;60.59;99657.61;107990;1259;73396;-67
2023/11/14 08:58:17;;;;;;;7.40;5.20;;;;;;;7.98;60.44;99651.99;107871;1256;72896;-67
2023/11/14 09:00:44;;;;;;;9.10;6.00;;;;;;;8.02;60.09;99646.85;107994;1257;71464;-67
2023/11/14 09:03:12;;;;;;;8.30;5.40;;;;;;;8.07;60.05;99635.05;108020;1255;61276;-67
2023/11/14 09:05:40;;;;;;;8.70;5.90;;;;;;;8.11;59.94;99628.90;107925;1256;61090;-67
2023/11/14 09:08:08;;;;;;;11.00;6.50;;;;;;;8.16;59.60;99621.08;108046;1256;74762;-67
2023/11/14 09:10:36;;;;;;;10.50;7.10;;;;;;;8.20;59.41;99614.33;107914;1256;71968;-67
2023/11/14 09:13:03;;;;;;;11.00;7.70;;;;;;;8.27;59.37;99600.71;107986;1256;71995;-67
2023/11/14 09:15:31;;;;;;;11.30;8.10;;;;;;;8.34;59.26;99595.73;107866;1256;60973;-67
2023/11/14 09:17:58;;;;;;;13.20;9.40;;;;;;;8.41;59.04;99586.55;107905;1255;61131;-66
2023/11/14 09:20:26;;;;;;;12.50;9.00;;;;;;;8.48;59.02;99572.44;107888;1256;73749;-65
2023/11/14 09:22:54;;;;;;;12.90;8.10;;;;;;;8.52;58.81;99566.31;107924;1255;70796;-68
2023/11/14 09:25:27;;;;;;;12.40;8.30;;;;;;;8.51;58.50;99564.98;107971;1256;72714;-67
2023/11/14 09:27:55;;;;;;;12.70;8.80;;;;;;;8.51;58.37;99568.61;107937;1256;61156;-67
2023/11/14 09:30:23;;;;;;;11.70;8.50;;;;;;;8.51;58.49;99566.16;107998;1255;61192;-66
2023/11/14 09:32:51;;;;;;;12.70;7.80;;;;;;;8.53;58.66;99564.94;107930;1256;73058;-66
2023/11/14 09:35:18;;;;;;;9.60;7.30;;;;;;;8.54;58.58;99572.49;107871;1256;72797;-67
2023/11/14 09:37:46;;;;;;;10.80;6.60;;;;;;;8.52;58.49;99582.02;107868;1256;72935;-67
2023/11/14 09:40:16;;;;;;;9.20;6.60;;;;;;;8.50;58.10;99590.28;107927;1256;61149;-66
2023/11/14 09:42:43;;;;;;;9.20;6.80;;;;;;;8.49;58.12;99584.33;108014;1256;59005;-65
2023/11/14 09:45:12;;;;;;;8.40;6.10;;;;;;;8.49;58.06;99586.60;108003;1256;73373;-66
2023/11/14 09:47:40;;;;;;;8.60;5.90;;;;;;;8.49;57.92;99588.83;107966;1255;71535;-67
2023/11/14 09:50:08;;;;;;;8.10;5.50;;;;;;;8.48;57.99;99584.90;107799;1256;71399;-65
2023/11/14 09:52:36;;;;;;;7.20;5.10;;;;;;;8.49;58.12;99576.38;108008;1256;61310;-66
2023/11/14 09:55:05;;;;;;;7.50;4.90;;;;;;;8.52;58.26;99570.90;107778;1256;61044;-67
2023/11/14 09:57:33;;;;;;;8.30;4.80;;;;;;;8.54;58.22;99562.42;107979;1256;74671;-66
2023/11/14 10:00:01;;;;;;;7.80;4.80;;;;;;;8.58;58.29;99556.35;107780;1255;72046;-67
2023/11/14 10:02:30;;;;;;;7.30;4.80;;;;;;;8.60;58.04;99552.52;107801;1255;72768;-66
2023/11/14 10:04:58;;;;;;;7.80;4.70;;;;;;;8.63;58.25;99546.41;107765;1257;59429;-66
2023/11/14 10:07:38;;;;;;;8.10;5.30;;;;;;;8.64;57.91;99537.45;107787;1255;60769;-67
2023/11/14 10:10:06;;;;;;;6.80;4.70;;;;;;;8.63;57.74;99538.62;107856;1255;75447;-69
2023/11/14 10:12:37;;;;;;;7.20;4.50;;;;;;;8.63;57.65;99533.58;107765;1255;75043;-67
2023/11/14 10:15:07;;;;;;;6.60;4.30;;;;;;;8.61;57.47;99526.96;107795;1255;72769;-67
2023/11/14 10:17:42;;;;;;;7.00;4.20;;;;;;;8.58;57.38;99523.09;107853;1261;61108;-67
2023/11/14 10:20:16;;;;;;;7.00;4.20;;;;;;;8.56;57.59;99520.65;107848;1255;61196;-68
2023/11/14 10:23:04;;;;;;;7.10;4.10;;;;;;;8.53;57.71;99517.14;107762;1255;73431;-66
2023/11/14 10:25:38;;;;;;;5.60;4.00;;;;;;;8.46;57.69;99512.30;108006;1255;72758;-66
2023/11/14 10:28:06;;;;;;;6.10;3.90;;;;;;;8.38;57.48;99508.03;107777;1255;73373;-68
2023/11/14 10:30:44;;;;;;;7.10;4.00;;;;;;;8.28;57.53;99505.52;107821;1255;61129;-67
2023/11/14 10:33:12;;;;;;;5.50;3.70;;;;;;;8.23;58.26;99501.54;107934;1255;61245;-67
2023/11/14 10:35:43;;;;;;;5.60;3.70;;;;;;;8.20;58.93;99493.73;107803;1255;74794;-66
2023/11/14 10:38:17;;;;;;;5.80;3.70;;;;;;;8.16;59.81;99496.86;107809;1255;71420;-66
2023/11/14 10:40:48;;;;;;;5.70;3.70;;;;;;;8.10;60.64;99490.48;107781;1261;72748;-66
2023/11/14 10:43:26;;;;;;;5.40;3.20;;;;;;;8.01;61.41;99483.41;107616;1255;237627;-68
2023/11/14 10:45:54;;;;;;;6.00;3.60;;;;;;;7.92;62.00;99478.61;107796;1255;60024;-69
2023/11/14 10:48:22;;;;;;;6.60;4.20;;;;;;;7.87;62.74;99468.58;107809;1255;75978;-67
2023/11/14 10:50:50;;;;;;;5.70;3.70;;;;;;;7.86;63.48;99456.81;107991;1256;71986;-68
2023/11/14 10:53:18;;;;;;;6.50;3.90;;;;;;;7.87;64.15;99449.17;107716;1257;71526;-66
2023/11/14 10:55:47;;;;;;;6.00;3.60;;;;;;;7.85;64.60;99447.36;107811;1256;61239;-68
2023/11/14 10:58:18;;;;;;;7.80;3.90;;;;;;;7.83;65.13;99445.12;107889;1257;59479;-70
2023/11/14 11:00:47;;;;;;;6.00;4.00;;;;;;;7.80;65.64;99444.27;107756;1256;74912;-67
2023/11/14 11:03:15;;;;;;;5.80;3.70;;;;;;;7.77;66.04;99446.08;107933;1256;72779;-67
2023/11/14 11:05:43;;;;;;;7.70;4.20;;;;;;;7.74;66.44;99441.63;107704;1256;72799;-68
2023/11/14 11:08:13;;;;;;;6.10;4.20;;;;;;;7.73;66.86;99433.36;107905;1256;61242;-67
2023/11/14 11:10:42;;;;;;;6.90;4.10;;;;;;;7.74;67.32;99430.29;108056;1256;61100;-68
2023/11/14 11:13:22;;;;;;;5.80;4.20;;;;;;;7.74;67.64;99420.08;107954;1260;74753;-67
2023/11/14 11:15:50;;;;;;;6.80;4.20;;;;;;;7.74;68.13;99408.16;107979;1256;72676;-67
2023/11/14 11:18:35;;;;;;;7.10;4.90;;;;;;;7.73;68.32;99398.77;107882;1255;71185;-66
2023/11/14 11:21:10;;;;;;;6.30;4.70;;;;;;;7.73;68.75;99393.13;107866;1256;61137;-66
2023/11/14 11:24:03;;;;;;;8.30;4.70;;;;;;;7.73;69.10;99379.58;107884;1256;61130;-66
2023/11/14 11:26:30;;;;;;;8.10;4.80;;;;;;;7.71;69.50;99370.74;107956;1255;73464;-66
2023/11/14 11:28:59;;;;;;;8.70;5.90;;;;;;;7.68;69.81;99363.80;107904;1256;72351;-67
2023/11/14 11:31:27;;;;;;;9.90;7.40;;;;;;;7.67;70.29;99357.45;108069;1255;72709;-67
2023/11/14 11:33:55;;;;;;;10.20;7.60;;;;;;;7.69;70.88;99351.08;108115;1256;61728;-68